sensor_id;sensor_type;location;lat;lon;timestamp;pressure;altitude;pressure_sealevel;temperature;humidity
19576;BME280;41589;51.196;7.074;2023-05-24T00:02:39;99649.84;;;9.90;52.39
19576;BME280;41589;51.196;7.074;2023-05-24T00:07:41;99653.19;;;9.97;52.01
19576;BME280;41589;51.196;7.074;2023-05-24T00:12:41;99669.75;;;9.95;52.34
19576;BME280;41589;51.196;7.074;2023-05-24T00:17:42;99661.16;;;9.86;52.51
19576;BME280;41589;51.196;7.074;2023-05-24T00:22:42;99662.16;;;9.79;52.59
19576;BME280;41589;51.196;7.074;2023-05-24T00:27:42;99658.72;;;9.72;52.96
19576;BME280;41589;51.196;7.074;2023-05-24T00:32:43;99656.16;;;9.77;53.29
19576;BME280;41589;51.196;7.074;2023-05-24T00:37:43;99657.63;;;9.53;53.23
19576;BME280;41589;51.196;7.074;2023-05-24T00:42:44;99659.25;;;9.67;53.58
19576;BME280;41589;51.196;7.074;2023-05-24T00:47:45;99658.06;;;9.68;53.80
19576;BME280;41589;51.196;7.074;2023-05-24T00:52:48;99637.66;;;9.64;53.57
19576;BME280;41589;51.196;7.074;2023-05-24T00:57:50;99642.63;;;9.89;53.21
19576;BME280;41589;51.196;7.074;2023-05-24T01:02:51;99632.50;;;9.91;53.10
19576;BME280;41589;51.196;7.074;2023-05-24T01:07:58;99644.88;;;9.94;52.89
19576;BME280;41589;51.196;7.074;2023-05-24T01:18:30;99629.72;;;9.75;53.50
19576;BME280;41589;51.196;7.074;2023-05-24T01:23:46;99633.63;;;9.65;53.74
19576;BME280;41589;51.196;7.074;2023-05-24T01:28:50;99634.84;;;9.80;54.01
19576;BME280;41589;51.196;7.074;2023-05-24T01:33:51;99627.66;;;9.92;53.56
19576;BME280;41589;51.196;7.074;2023-05-24T01:38:53;99633.66;;;10.06;53.43
19576;BME280;41589;51.196;7.074;2023-05-24T01:44:17;99616.00;;;10.06;53.58
19576;BME280;41589;51.196;7.074;2023-05-24T01:49:23;99619.94;;;10.08;53.25
19576;BME280;41589;51.196;7.074;2023-05-24T01:54:25;99618.34;;;10.07;53.52
19576;BME280;41589;51.196;7.074;2023-05-24T01:59:28;99611.28;;;10.03;53.36
19576;BME280;41589;51.196;7.074;2023-05-24T02:04:31;99623.31;;;10.03;53.29
19576;BME280;41589;51.196;7.074;2023-05-24T02:09:32;99613.50;;;10.08;53.38
19576;BME280;41589;51.196;7.074;2023-05-24T02:14:32;99620.25;;;9.98;53.43
19576;BME280;41589;51.196;7.074;2023-05-24T02:19:33;99615.97;;;9.93;53.60
19576;BME280;41589;51.196;7.074;2023-05-24T02:24:35;99610.59;;;9.99;53.77
19576;BME280;41589;51.196;7.074;2023-05-24T02:29:36;99603.38;;;9.98;53.52
19576;BME280;41589;51.196;7.074;2023-05-24T02:34:37;99606.06;;;9.89;53.55
19576;BME280;41589;51.196;7.074;2023-05-24T02:39:38;99604.34;;;9.78;54.06
19576;BME280;41589;51.196;7.074;2023-05-24T02:44:38;99603.69;;;9.87;54.06
19576;BME280;41589;51.196;7.074;2023-05-24T02:49:39;99603.34;;;9.85;54.07
19576;BME280;41589;51.196;7.074;2023-05-24T02:54:39;99608.63;;;9.83;54.05
19576;BME280;41589;51.196;7.074;2023-05-24T02:59:43;99611.91;;;9.81;54.30
19576;BME280;41589;51.196;7.074;2023-05-24T03:04:43;99616.78;;;9.77;54.80
19576;BME280;41589;51.196;7.074;2023-05-24T03:09:45;99616.38;;;9.79;54.53
19576;BME280;41589;51.196;7.074;2023-05-24T03:14:46;99604.41;;;9.75;54.63
19576;BME280;41589;51.196;7.074;2023-05-24T03:19:46;99597.09;;;9.77;54.59
19576;BME280;41589;51.196;7.074;2023-05-24T03:24:46;99596.59;;;9.82;54.74
19576;BME280;41589;51.196;7.074;2023-05-24T03:29:48;99589.50;;;9.78;54.57
19576;BME280;41589;51.196;7.074;2023-05-24T03:34:50;99594.06;;;9.72;54.92
19576;BME280;41589;51.196;7.074;2023-05-24T03:39:51;99608.53;;;9.57;54.72
19576;BME280;41589;51.196;7.074;2023-05-24T03:45:10;99600.94;;;9.42;54.98
19576;BME280;41589;51.196;7.074;2023-05-24T03:50:11;99609.66;;;9.31;55.30
19576;BME280;41589;51.196;7.074;2023-05-24T03:55:13;99609.31;;;9.29;55.65
19576;BME280;41589;51.196;7.074;2023-05-24T04:00:15;99617.56;;;9.36;56.12
19576;BME280;41589;51.196;7.074;2023-05-24T04:05:19;99618.34;;;9.37;56.08
19576;BME280;41589;51.196;7.074;2023-05-24T04:10:19;99617.00;;;9.41;56.75
19576;BME280;41589;51.196;7.074;2023-05-24T04:15:23;99622.69;;;9.54;56.66
19576;BME280;41589;51.196;7.074;2023-05-24T04:20:23;99634.78;;;9.67;57.11
19576;BME280;41589;51.196;7.074;2023-05-24T04:25:24;99645.72;;;9.78;57.19
19576;BME280;41589;51.196;7.074;2023-05-24T04:30:27;99639.28;;;9.77;57.19
19576;BME280;41589;51.196;7.074;2023-05-24T04:35:30;99641.47;;;9.86;57.63
19576;BME280;41589;51.196;7.074;2023-05-24T04:40:31;99645.59;;;10.10;57.61
19576;BME280;41589;51.196;7.074;2023-05-24T04:45:31;99642.56;;;10.18;57.89
19576;BME280;41589;51.196;7.074;2023-05-24T04:50:32;99651.13;;;10.27;57.91
19576;BME280;41589;51.196;7.074;2023-05-24T04:55:34;99651.47;;;10.29;57.79
19576;BME280;41589;51.196;7.074;2023-05-24T05:00:35;99657.88;;;10.17;59.21
19576;BME280;41589;51.196;7.074;2023-05-24T05:05:35;99673.78;;;10.36;59.17
19576;BME280;41589;51.196;7.074;2023-05-24T05:10:36;99674.22;;;10.34;59.35
19576;BME280;41589;51.196;7.074;2023-05-24T05:15:44;99675.91;;;10.45;59.63
19576;BME280;41589;51.196;7.074;2023-05-24T05:20:48;99676.50;;;10.52;59.16
19576;BME280;41589;51.196;7.074;2023-05-24T05:25:53;99675.50;;;10.84;59.15
19576;BME280;41589;51.196;7.074;2023-05-24T05:31:02;99683.81;;;10.75;59.12
19576;BME280;41589;51.196;7.074;2023-05-24T05:36:28;99680.09;;;10.91;58.78
19576;BME280;41589;51.196;7.074;2023-05-24T05:41:38;99669.91;;;11.44;58.76
19576;BME280;41589;51.196;7.074;2023-05-24T05:47:04;99670.91;;;11.72;58.34
19576;BME280;41589;51.196;7.074;2023-05-24T05:52:11;99682.22;;;11.60;57.94
19576;BME280;41589;51.196;7.074;2023-05-24T05:57:27;99660.72;;;11.75;57.78
19576;BME280;41589;51.196;7.074;2023-05-24T06:02:46;99653.94;;;12.07;57.70
19576;BME280;41589;51.196;7.074;2023-05-24T06:07:53;99652.97;;;12.32;56.52
19576;BME280;41589;51.196;7.074;2023-05-24T06:12:53;99653.56;;;12.49;55.19
19576;BME280;41589;51.196;7.074;2023-05-24T06:18:01;99634.22;;;12.78;55.06
19576;BME280;41589;51.196;7.074;2023-05-24T06:23:20;99635.88;;;13.16;54.53
19576;BME280;41589;51.196;7.074;2023-05-24T06:28:25;99658.28;;;12.92;54.34
19576;BME280;41589;51.196;7.074;2023-05-24T06:33:29;99650.81;;;13.16;55.05
19576;BME280;41589;51.196;7.074;2023-05-24T06:39:04;99659.69;;;12.96;53.35
19576;BME280;41589;51.196;7.074;2023-05-24T06:44:23;99658.31;;;13.10;54.14
19576;BME280;41589;51.196;7.074;2023-05-24T06:49:31;99660.28;;;13.59;52.30
19576;BME280;41589;51.196;7.074;2023-05-24T06:54:34;99666.44;;;13.85;52.34
19576;BME280;41589;51.196;7.074;2023-05-24T07:00:29;99659.06;;;13.69;51.19
19576;BME280;41589;51.196;7.074;2023-05-24T07:05:29;99666.59;;;13.91;51.77
19576;BME280;41589;51.196;7.074;2023-05-24T07:10:33;99675.19;;;14.14;51.63
19576;BME280;41589;51.196;7.074;2023-05-24T07:15:42;99672.25;;;13.81;50.82
19576;BME280;41589;51.196;7.074;2023-05-24T07:20:42;99679.47;;;13.55;49.18
19576;BME280;41589;51.196;7.074;2023-05-24T07:25:48;99691.69;;;13.34;50.91
19576;BME280;41589;51.196;7.074;2023-05-24T07:30:49;99695.41;;;13.21;51.68
19576;BME280;41589;51.196;7.074;2023-05-24T07:35:58;99687.72;;;13.13;51.93
19576;BME280;41589;51.196;7.074;2023-05-24T07:41:00;99681.84;;;12.98;52.32
19576;BME280;41589;51.196;7.074;2023-05-24T07:46:05;99685.09;;;12.87;52.78
19576;BME280;41589;51.196;7.074;2023-05-24T07:51:08;99689.22;;;12.95;52.85
19576;BME280;41589;51.196;7.074;2023-05-24T07:56:13;99690.97;;;13.02;53.07
19576;BME280;41589;51.196;7.074;2023-05-24T08:01:22;99691.03;;;13.29;50.96
19576;BME280;41589;51.196;7.074;2023-05-24T08:06:23;99690.59;;;13.58;51.24
19576;BME280;41589;51.196;7.074;2023-05-24T08:11:24;99697.00;;;13.41;49.88
19576;BME280;41589;51.196;7.074;2023-05-24T08:16:31;99697.06;;;13.59;49.54
19576;BME280;41589;51.196;7.074;2023-05-24T08:21:32;99698.47;;;13.54;49.74
19576;BME280;41589;51.196;7.074;2023-05-24T08:39:11;99705.91;;;13.98;49.15
19576;BME280;41589;51.196;7.074;2023-05-24T08:44:17;99690.50;;;13.90;48.59
19576;BME280;41589;51.196;7.074;2023-05-24T08:49:18;99686.56;;;14.05;48.84
19576;BME280;41589;51.196;7.074;2023-05-24T08:54:21;99700.41;;;13.85;47.98
19576;BME280;41589;51.196;7.074;2023-05-24T09:05:09;99678.22;;;14.11;47.45
19576;BME280;41589;51.196;7.074;2023-05-24T09:10:10;99689.81;;;14.92;47.31
19576;BME280;41589;51.196;7.074;2023-05-24T09:15:17;99690.50;;;15.11;44.72
19576;BME280;41589;51.196;7.074;2023-05-24T09:20:35;99676.81;;;15.09;43.89
19576;BME280;41589;51.196;7.074;2023-05-24T09:25:54;99690.06;;;15.03;43.93
19576;BME280;41589;51.196;7.074;2023-05-24T09:31:11;99679.47;;;14.80;43.91
19576;BME280;41589;51.196;7.074;2023-05-24T09:36:21;99685.19;;;14.61;45.02
19576;BME280;41589;51.196;7.074;2023-05-24T09:41:22;99688.00;;;14.70;44.83
19576;BME280;41589;51.196;7.074;2023-05-24T09:46:34;99680.78;;;14.60;45.62
19576;BME280;41589;51.196;7.074;2023-05-24T09:51:46;99675.13;;;15.26;45.63
19576;BME280;41589;51.196;7.074;2023-05-24T10:03:03;99662.22;;;15.73;42.12
19576;BME280;41589;51.196;7.074;2023-05-24T10:08:37;99660.69;;;15.39;42.77
19576;BME280;41589;51.196;7.074;2023-05-24T10:13:40;99678.19;;;15.85;42.62
19576;BME280;41589;51.196;7.074;2023-05-24T10:18:44;99665.41;;;16.05;41.62
19576;BME280;41589;51.196;7.074;2023-05-24T10:23:50;99670.97;;;15.84;41.60
19576;BME280;41589;51.196;7.074;2023-05-24T10:28:54;99682.69;;;15.77;41.78
19576;BME280;41589;51.196;7.074;2023-05-24T10:34:01;99680.63;;;15.78;43.04
19576;BME280;41589;51.196;7.074;2023-05-24T10:39:02;99671.66;;;15.94;41.81
19576;BME280;41589;51.196;7.074;2023-05-24T10:44:09;99667.66;;;16.01;41.25
19576;BME280;41589;51.196;7.074;2023-05-24T10:49:12;99664.66;;;15.80;40.94
19576;BME280;41589;51.196;7.074;2023-05-24T10:54:15;99682.75;;;15.44;40.73
19576;BME280;41589;51.196;7.074;2023-05-24T10:59:32;99670.63;;;15.44;42.09
19576;BME280;41589;51.196;7.074;2023-05-24T11:04:38;99671.69;;;15.22;42.62
19576;BME280;41589;51.196;7.074;2023-05-24T11:09:41;99671.16;;;15.33;43.01
19576;BME280;41589;51.196;7.074;2023-05-24T11:15:00;99672.53;;;15.38;41.81
19576;BME280;41589;51.196;7.074;2023-05-24T11:20:05;99673.78;;;14.89;42.64
19576;BME280;41589;51.196;7.074;2023-05-24T11:25:08;99676.00;;;14.66;42.78
19576;BME280;41589;51.196;7.074;2023-05-24T11:30:12;99671.59;;;14.74;43.63
19576;BME280;41589;51.196;7.074;2023-05-24T11:35:18;99671.78;;;14.62;43.20
19576;BME280;41589;51.196;7.074;2023-05-24T11:40:19;99672.41;;;14.75;43.51
19576;BME280;41589;51.196;7.074;2023-05-24T11:45:22;99670.81;;;14.65;43.84
19576;BME280;41589;51.196;7.074;2023-05-24T11:50:48;99677.91;;;15.12;43.33
19576;BME280;41589;51.196;7.074;2023-05-24T11:55:49;99665.84;;;15.26;43.40
19576;BME280;41589;51.196;7.074;2023-05-24T12:00:51;99667.38;;;15.03;42.79
19576;BME280;41589;51.196;7.074;2023-05-24T12:05:56;99656.91;;;15.18;43.10
19576;BME280;41589;51.196;7.074;2023-05-24T12:10:57;99666.19;;;15.67;42.82
19576;BME280;41589;51.196;7.074;2023-05-24T12:16:05;99655.41;;;16.09;42.74
19576;BME280;41589;51.196;7.074;2023-05-24T12:21:10;99646.50;;;16.31;42.00
19576;BME280;41589;51.196;7.074;2023-05-24T12:26:17;99647.78;;;16.74;41.51
19576;BME280;41589;51.196;7.074;2023-05-24T12:31:19;99655.03;;;16.75;41.08
19576;BME280;41589;51.196;7.074;2023-05-24T12:36:23;99658.16;;;16.63;40.94
19576;BME280;41589;51.196;7.074;2023-05-24T12:41:24;99656.31;;;16.30;40.79
19576;BME280;41589;51.196;7.074;2023-05-24T12:46:27;99667.84;;;15.82;41.84
19576;BME280;41589;51.196;7.074;2023-05-24T12:51:34;99669.50;;;15.65;42.04
19576;BME280;41589;51.196;7.074;2023-05-24T12:56:56;99667.41;;;15.75;42.21
19576;BME280;41589;51.196;7.074;2023-05-24T13:01:59;99667.34;;;15.84;42.47
19576;BME280;41589;51.196;7.074;2023-05-24T13:07:00;99657.44;;;15.79;42.06
19576;BME280;41589;51.196;7.074;2023-05-24T13:12:26;99655.91;;;15.93;42.02
19576;BME280;41589;51.196;7.074;2023-05-24T13:17:27;99655.50;;;15.85;42.83
19576;BME280;41589;51.196;7.074;2023-05-24T13:22:33;99661.34;;;15.58;42.34
19576;BME280;41589;51.196;7.074;2023-05-24T13:27:37;99657.56;;;15.37;43.06
19576;BME280;41589;51.196;7.074;2023-05-24T13:33:26;99655.22;;;15.36;43.60
19576;BME280;41589;51.196;7.074;2023-05-24T13:38:29;99643.72;;;15.78;43.48
19576;BME280;41589;51.196;7.074;2023-05-24T13:43:30;99657.56;;;16.00;42.72
19576;BME280;41589;51.196;7.074;2023-05-24T13:48:37;99652.59;;;16.24;43.11
19576;BME280;41589;51.196;7.074;2023-05-24T13:54:05;99650.25;;;16.37;42.52
19576;BME280;41589;51.196;7.074;2023-05-24T13:59:22;99649.16;;;16.50;42.35
19576;BME280;41589;51.196;7.074;2023-05-24T14:04:24;99641.03;;;16.57;42.54
19576;BME280;41589;51.196;7.074;2023-05-24T14:09:27;99655.72;;;16.41;42.48
19576;BME280;41589;51.196;7.074;2023-05-24T14:14:30;99647.59;;;16.04;42.12
19576;BME280;41589;51.196;7.074;2023-05-24T14:19:31;99647.28;;;16.02;42.87
19576;BME280;41589;51.196;7.074;2023-05-24T14:24:32;99648.50;;;16.25;43.00
19576;BME280;41589;51.196;7.074;2023-05-24T14:29:33;99640.84;;;16.46;41.98
19576;BME280;41589;51.196;7.074;2023-05-24T14:34:44;99646.91;;;16.68;42.18
19576;BME280;41589;51.196;7.074;2023-05-24T14:39:53;99636.59;;;17.06;42.33
19576;BME280;41589;51.196;7.074;2023-05-24T14:44:57;99647.31;;;16.46;41.20
19576;BME280;41589;51.196;7.074;2023-05-24T14:49:58;99645.53;;;16.05;42.14
19576;BME280;41589;51.196;7.074;2023-05-24T14:55:26;99641.13;;;16.04;42.97
19576;BME280;41589;51.196;7.074;2023-05-24T15:01:03;99642.19;;;16.51;42.43
19576;BME280;41589;51.196;7.074;2023-05-24T15:06:04;99635.78;;;16.85;42.52
19576;BME280;41589;51.196;7.074;2023-05-24T15:11:05;99651.59;;;16.86;41.75
19576;BME280;41589;51.196;7.074;2023-05-24T15:16:05;99654.38;;;16.66;40.89
19576;BME280;41589;51.196;7.074;2023-05-24T15:21:07;99645.53;;;16.79;41.28
19576;BME280;41589;51.196;7.074;2023-05-24T15:26:17;99641.19;;;16.54;42.03
19576;BME280;41589;51.196;7.074;2023-05-24T15:31:18;99622.69;;;16.58;42.18
19576;BME280;41589;51.196;7.074;2023-05-24T15:36:21;99633.06;;;16.61;42.60
19576;BME280;41589;51.196;7.074;2023-05-24T15:41:22;99633.84;;;16.62;42.37
19576;BME280;41589;51.196;7.074;2023-05-24T15:46:25;99616.78;;;17.12;42.21
19576;BME280;41589;51.196;7.074;2023-05-24T15:56:51;99613.75;;;16.80;42.54
19576;BME280;41589;51.196;7.074;2023-05-24T16:01:57;99624.47;;;16.56;42.09
19576;BME280;41589;51.196;7.074;2023-05-24T16:06:57;99625.97;;;16.36;42.97
19576;BME280;41589;51.196;7.074;2023-05-24T16:11:58;99624.09;;;16.04;43.65
19576;BME280;41589;51.196;7.074;2023-05-24T16:16:59;99622.91;;;15.96;43.75
19576;BME280;41589;51.196;7.074;2023-05-24T16:22:01;99623.00;;;16.01;43.86
19576;BME280;41589;51.196;7.074;2023-05-24T16:27:01;99634.56;;;16.27;43.77
19576;BME280;41589;51.196;7.074;2023-05-24T16:32:02;99621.88;;;15.69;44.38
19576;BME280;41589;51.196;7.074;2023-05-24T16:37:02;99627.50;;;16.23;43.97
19576;BME280;41589;51.196;7.074;2023-05-24T16:42:03;99623.03;;;16.16;44.10
19576;BME280;41589;51.196;7.074;2023-05-24T16:47:04;99626.53;;;15.96;43.48
19576;BME280;41589;51.196;7.074;2023-05-24T16:52:05;99629.44;;;15.87;44.37
19576;BME280;41589;51.196;7.074;2023-05-24T16:57:06;99625.34;;;15.73;44.54
19576;BME280;41589;51.196;7.074;2023-05-24T17:02:07;99621.06;;;15.69;44.99
19576;BME280;41589;51.196;7.074;2023-05-24T17:07:07;99625.53;;;15.60;45.24
19576;BME280;41589;51.196;7.074;2023-05-24T17:12:08;99618.38;;;15.74;45.60
19576;BME280;41589;51.196;7.074;2023-05-24T17:17:08;99613.50;;;15.89;44.95
19576;BME280;41589;51.196;7.074;2023-05-24T17:22:22;99621.38;;;15.71;45.08
19576;BME280;41589;51.196;7.074;2023-05-24T17:27:25;99616.25;;;15.60;45.44
19576;BME280;41589;51.196;7.074;2023-05-24T17:32:26;99610.56;;;15.60;45.74
19576;BME280;41589;51.196;7.074;2023-05-24T17:37:26;99621.59;;;15.82;45.42
19576;BME280;41589;51.196;7.074;2023-05-24T17:42:27;99627.06;;;15.71;45.64
19576;BME280;41589;51.196;7.074;2023-05-24T17:47:27;99617.72;;;15.94;45.43
19576;BME280;41589;51.196;7.074;2023-05-24T17:52:27;99614.41;;;15.96;45.01
19576;BME280;41589;51.196;7.074;2023-05-24T17:57:29;99615.59;;;16.04;45.43
19576;BME280;41589;51.196;7.074;2023-05-24T18:02:48;99609.09;;;15.88;45.50
19576;BME280;41589;51.196;7.074;2023-05-24T18:07:56;99624.06;;;15.74;45.89
19576;BME280;41589;51.196;7.074;2023-05-24T18:13:09;99613.53;;;15.66;45.81
19576;BME280;41589;51.196;7.074;2023-05-24T18:18:10;99625.81;;;15.72;45.92
19576;BME280;41589;51.196;7.074;2023-05-24T18:23:13;99617.44;;;15.53;45.70
19576;BME280;41589;51.196;7.074;2023-05-24T18:28:16;99630.53;;;15.51;45.88
19576;BME280;41589;51.196;7.074;2023-05-24T18:33:17;99631.38;;;15.42;46.01
19576;BME280;41589;51.196;7.074;2023-05-24T18:38:20;99637.84;;;15.43;46.00
19576;BME280;41589;51.196;7.074;2023-05-24T18:43:20;99643.81;;;15.45;46.36
19576;BME280;41589;51.196;7.074;2023-05-24T18:48:21;99649.19;;;15.43;46.59
19576;BME280;41589;51.196;7.074;2023-05-24T18:53:21;99656.22;;;15.47;46.55
19576;BME280;41589;51.196;7.074;2023-05-24T18:58:23;99655.41;;;15.32;46.88
19576;BME280;41589;51.196;7.074;2023-05-24T19:03:24;99652.19;;;15.15;47.12
19576;BME280;41589;51.196;7.074;2023-05-24T19:08:30;99660.44;;;15.04;47.88
19576;BME280;41589;51.196;7.074;2023-05-24T19:13:49;99670.97;;;15.13;47.87
19576;BME280;41589;51.196;7.074;2023-05-24T19:18:50;99673.09;;;14.94;48.10
19576;BME280;41589;51.196;7.074;2023-05-24T19:23:51;99670.00;;;14.83;48.17
19576;BME280;41589;51.196;7.074;2023-05-24T19:28:51;99675.38;;;14.81;48.47
19576;BME280;41589;51.196;7.074;2023-05-24T19:33:53;99673.97;;;14.76;48.58
19576;BME280;41589;51.196;7.074;2023-05-24T19:39:02;99675.22;;;14.66;48.65
19576;BME280;41589;51.196;7.074;2023-05-24T19:44:04;99676.97;;;14.63;48.86
19576;BME280;41589;51.196;7.074;2023-05-24T19:49:07;99690.53;;;14.59;48.89
19576;BME280;41589;51.196;7.074;2023-05-24T19:54:08;99686.47;;;14.42;49.49
19576;BME280;41589;51.196;7.074;2023-05-24T19:59:10;99689.81;;;14.22;49.84
19576;BME280;41589;51.196;7.074;2023-05-24T20:04:14;99698.31;;;14.22;49.90
19576;BME280;41589;51.196;7.074;2023-05-24T20:09:15;99703.84;;;14.26;50.00
19576;BME280;41589;51.196;7.074;2023-05-24T20:14:22;99714.22;;;14.20;50.38
19576;BME280;41589;51.196;7.074;2023-05-24T20:19:23;99716.75;;;14.17;50.43
19576;BME280;41589;51.196;7.074;2023-05-24T20:24:28;99708.25;;;14.17;50.84
19576;BME280;41589;51.196;7.074;2023-05-24T20:29:32;99713.91;;;14.17;50.86
19576;BME280;41589;51.196;7.074;2023-05-24T20:34:33;99723.03;;;14.12;51.04
19576;BME280;41589;51.196;7.074;2023-05-24T20:39:34;99728.38;;;14.10;51.00
19576;BME280;41589;51.196;7.074;2023-05-24T20:44:35;99732.16;;;14.07;51.27
19576;BME280;41589;51.196;7.074;2023-05-24T20:49:37;99721.16;;;14.00;51.44
19576;BME280;41589;51.196;7.074;2023-05-24T20:54:38;99713.44;;;13.92;51.64
19576;BME280;41589;51.196;7.074;2023-05-24T20:59:39;99721.63;;;13.80;51.82
19576;BME280;41589;51.196;7.074;2023-05-24T21:04:40;99729.16;;;13.74;51.96
19576;BME280;41589;51.196;7.074;2023-05-24T21:09:44;99725.69;;;13.70;52.45
19576;BME280;41589;51.196;7.074;2023-05-24T21:14:46;99731.81;;;13.69;52.18
19576;BME280;41589;51.196;7.074;2023-05-24T21:19:47;99727.91;;;13.66;52.27
19576;BME280;41589;51.196;7.074;2023-05-24T21:24:47;99736.16;;;13.51;52.30
19576;BME280;41589;51.196;7.074;2023-05-24T21:29:48;99737.28;;;13.54;52.58
19576;BME280;41589;51.196;7.074;2023-05-24T21:34:48;99740.00;;;13.67;52.52
19576;BME280;41589;51.196;7.074;2023-05-24T21:39:52;99741.41;;;13.71;52.34
19576;BME280;41589;51.196;7.074;2023-05-24T21:44:53;99752.41;;;13.69;52.31
19576;BME280;41589;51.196;7.074;2023-05-24T21:50:01;99748.66;;;13.63;52.11
19576;BME280;41589;51.196;7.074;2023-05-24T21:55:05;99754.34;;;13.41;52.24
19576;BME280;41589;51.196;7.074;2023-05-24T22:00:12;99744.13;;;13.25;52.75
19576;BME280;41589;51.196;7.074;2023-05-24T22:05:17;99753.06;;;13.24;53.03
19576;BME280;41589;51.196;7.074;2023-05-24T22:10:20;99763.91;;;13.25;53.06
19576;BME280;41589;51.196;7.074;2023-05-24T22:15:24;99764.69;;;13.26;52.99
19576;BME280;41589;51.196;7.074;2023-05-24T22:20:26;99769.72;;;13.22;53.07
19576;BME280;41589;51.196;7.074;2023-05-24T22:25:29;99767.16;;;13.15;53.38
19576;BME280;41589;51.196;7.074;2023-05-24T22:30:30;99765.13;;;13.15;53.35
19576;BME280;41589;51.196;7.074;2023-05-24T22:35:31;99770.75;;;13.06;53.53
19576;BME280;41589;51.196;7.074;2023-05-24T22:40:35;99771.84;;;13.09;53.91
19576;BME280;41589;51.196;7.074;2023-05-24T22:45:36;99761.94;;;13.04;53.88
19576;BME280;41589;51.196;7.074;2023-05-24T22:50:37;99749.84;;;13.04;53.90
19576;BME280;41589;51.196;7.074;2023-05-24T22:55:38;99758.81;;;13.02;53.83
19576;BME280;41589;51.196;7.074;2023-05-24T23:00:39;99762.88;;;13.01;54.02
19576;BME280;41589;51.196;7.074;2023-05-24T23:05:43;99780.88;;;12.94;54.56
19576;BME280;41589;51.196;7.074;2023-05-24T23:10:44;99774.44;;;12.94;54.40
19576;BME280;41589;51.196;7.074;2023-05-24T23:15:46;99776.91;;;12.83;54.56
19576;BME280;41589;51.196;7.074;2023-05-24T23:20:47;99773.75;;;12.81;54.71
19576;BME280;41589;51.196;7.074;2023-05-24T23:25:49;99781.16;;;12.87;54.81
19576;BME280;41589;51.196;7.074;2023-05-24T23:30:50;99776.44;;;12.84;55.08
19576;BME280;41589;51.196;7.074;2023-05-24T23:35:53;99770.66;;;12.88;55.09
19576;BME280;41589;51.196;7.074;2023-05-24T23:40:54;99775.88;;;12.98;54.81
19576;BME280;41589;51.196;7.074;2023-05-24T23:45:55;99774.19;;;13.01;54.67
19576;BME280;41589;51.196;7.074;2023-05-24T23:50:58;99774.19;;;13.01;54.80
19576;BME280;41589;51.196;7.074;2023-05-24T23:55:59;99779.00;;;12.91;54.76
